< < Back
Terminal Aerodrome Forecast


Current Version              Previous Versions:   1  2  3  4  5  6  7  8  9  

Terminal Aerodrome Forecast

246
FTUS42 KFFC 182358 AAA
TAFMCN
TAF AMD
KMCN 182358Z 1900/1924 VRB04KT P6SM VCTS BKN060CB
     FM190100 VRB04KT P6SM SCT020 BKN040
     FM190500 15005KT 6SM -RA OVC015
     FM190900 18006KT 4SM -SHRA BR OVC007 PROB30 1912/1916 4SM -TSRA
      BKN010CB
     FM191600 19008G16KT 4SM -TSRA BKN010CB OVC025
     FM192000 21008G16KT P6SM BKN015
     FM192300 21008G16KT P6SM BKN030=

Latest METAR

608
SAUS80 KWBC 191200 RRA
MTRMCN
METAR KMCN 191153Z 09003KT 5SM BR BKN004 OVC100 20/19 A2985 RMK AO2
SLP103 60002 70005 T02000194 10200 20189 55011


USA.gov is the U.S. government's official web portal to all federal, state and local government web resources and services.